Detall de PIREP

Printer-friendly versionPDF version

[2010/12/28 16:34:00]
Flight IATA:CT1004
Pilot Number:042
Company ICAO:CAT
Aircraft Type:B763/F
PAX:150
Departing Airport: LIEA
Destination Airport: HLLT
Alternate Airport:LMML
Online: VATSIM
Route:SODIO UT118 LUNAM UM731 TUC UA411 MON UN157 GASRI
Flight Level:FL350
No Slew and time accel
No pause
Crash detect
Detect pilot in Cockpit between each 30 and 45 minutes
16:34 Zero fuel Weight: 244976 Lbs, Fuel Weight: 160441 Lbs
16:34 VATSIM:LIEA 281550Z 19003KT 9999 FEW030 BKN048 10/06 Q1021
16:34 VATSIM:HLLT 281550Z 30007KT 5000 SHRA SCT023 BKN040 13/11 Q1021
16:35 VOICE CATALONIAN/X-MAS CHARTER
16:40 Parking Brakes off
16:50 Take-off
16:50 Take off Weight: 402180 Lbs
16:50 Wind: 240 @ 002 Knots Heading: 204
16:50 POS N40 37 38 E008 17 16
16:50 Gear Up: 182 Knots
16:50 Flaps:3 at 182 Knots
16:51 Flaps:2 at 181 Knots
16:51 Flaps:1 at 195 Knots
16:53 Flaps:0 at 237 Knots
17:05 Wind:294@048 Knots Heading: 163 Ground Speed: 490 Knots Altitude 29622 ft
17:08 TOC
17:08 Fuel Weight: 148620 Lb
17:20 Wind:305@053 Knots Heading: 163 Ground Speed: 487 Knots Altitude 35246 ft
17:35 Wind:315@001 Knots Heading: 159 Ground Speed: 447 Knots Altitude 35226 ft
17:40 TOD
17:40 Fuel Weight: 142044 Lb
17:50 Wind:332@029 Knots Heading: 168 Ground Speed: 364 Knots Altitude 20757 ft
17:55 Flaps:1 at 237 Knots
18:05 Wind:328@007 Knots Heading: 141 Ground Speed: 241 Knots Altitude 7230 ft
18:07 Flaps:2 at 208 Knots
18:13 Flaps:3 at 188 Knots
18:20 Wind:299@005 Knots Heading: 088 Ground Speed: 189 Knots Altitude 2536 ft
18:26 Gear Down: 162 Knots
18:26 Flaps:4 at 161 Knots
18:26 Flaps:5 at 159 Knots
18:27 Flaps:6 at 160 Knots
18:30 TouchDown:Rate -137 ft/min Speed: 130 Knots
18:30 VATSIM:HLLT 281750Z 30005KT 9999 SCT023 BKN040 13/10 Q1022
18:30 Land
18:30 Wind:299@005 Knots
18:30 Heading: 268
18:30 Flight Duration: 01:40
18:30 Landing Weight: 376958 Lbs
18:30 POS N32 39 53 E013 09 05
18:32 Parking brakes on
18:32 Block to Block Duration: 01:52
18:32 Final Fuel: 131830 Lbls
18:32 Spent Fuel: 28611 Lbls
18:32 Flight Length: 429 NM
18:32 TOD Land Length: 167 NM

Exportar CSV

Powered by Drupal - Modified by Danger4k